Latest Weather Observations for Cape Moreton

IDQ60801

Issued at 8:22 pm EST Friday 26 February 2021 (issued every 10 minutes, with the page automatically refreshed every 10 minutes)

About weather observations | Map of weather stations | Latest weather observations for QLD | Other Formats
Station Details ID: 040043 Name: CAPE MORETON LIGHTHOUSE Lat: -27.03 Lon: 153.47 Height: 99.9 m
Data from the previous 72 hours. | See also: Recent months at Cape Moreton
Date/Time
EST
Temp
°C
App
Temp
°C
Dew
Point
°C
Rel
Hum
%
Delta-T
°C
Wind Press
QNH
hPa
Press
MSL
hPa
Rain since
9am
mm
Dir  Spd
km/h
Gust
km/h
Spd
kts
Gust
kts
26/08:00pm 24.7 25.7 22.2 86 1.7 NE 20 28 11 15 1011.7 1011.2 0.0
26/07:30pm 24.7 24.9 22.0 85 1.8 NE 24 30 13 16 1011.4 1010.9 0.0
26/07:00pm 24.7 24.8 21.8 84 1.9 ENE 24 30 13 16 1011.1 1010.6 0.0
26/06:30pm 24.8 25.5 22.3 86 1.7 ENE 22 30 12 16 1010.7 1010.2 0.0
26/06:00pm 24.9 24.7 22.0 84 1.9 ENE 26 32 14 17 1010.2 1009.7 0.0
26/05:30pm 25.2 25.5 22.3 84 2.0 ENE 24 30 13 16 1009.9 1009.4 0.0
26/05:00pm 25.4 26.0 22.1 82 2.2 ENE 22 28 12 15 1009.8 1009.3 0.0
26/04:30pm 25.6 26.7 22.3 82 2.2 ENE 20 24 11 13 1009.6 1009.1 0.0
26/04:00pm 26.1 27.3 22.2 79 2.6 ENE 19 22 10 12 1009.6 1009.1 0.0
26/03:30pm 26.3 27.7 21.9 77 3.0 ENE 17 20 9 11 1009.6 1009.1 0.0
26/03:00pm 26.7 28.8 22.5 78 2.8 ENE 15 19 8 10 1009.6 1009.1 0.0
26/02:30pm 27.3 29.7 22.3 74 3.4 ENE 13 17 7 9 1009.9 1009.4 0.0
26/02:00pm 27.6 30.7 22.8 75 3.3 ENE 11 15 6 8 1010.3 1009.8 0.0
26/01:30pm 27.9 30.9 22.6 73 3.6 NNE 11 15 6 8 1010.6 1010.1 0.0
26/01:00pm 28.9 33.0 24.5 77 3.1 N 11 15 6 8 1010.7 1010.2 0.0
26/12:30pm 27.8 30.8 22.7 74 3.5 N 11 15 6 8 1011.0 1010.5 0.0
26/12:00pm 27.1 29.7 22.7 77 3.0 N 13 17 7 9 1011.1 1010.6 0.0
26/11:30am 27.4 30.2 23.0 77 3.0 N 13 17 7 9 1011.4 1010.9 0.0
26/11:00am 26.8 29.4 22.6 78 2.8 NNW 13 17 7 9 1011.6 1011.1 0.0
26/10:30am 26.9 29.4 22.5 77 3.0 N 13 17 7 9 1011.8 1011.3 0.0
26/10:00am 26.7 29.4 22.1 76 3.1 N 11 15 6 8 1011.8 1011.3 0.0
26/09:30am 26.9 30.2 22.5 77 3.0 N 9 15 5 8 1011.9 1011.4 0.0
26/09:00am 26.7 30.2 22.8 79 2.7 N 9 15 5 8 1012.0 1011.5 -
26/08:30am 26.6 29.6 22.7 79 2.6 N 11 15 6 8 1011.9 1011.4 -
26/08:00am 26.5 29.2 22.8 80 2.5 NE 13 17 7 9 1011.8 1011.3 -
26/07:30am 26.3 29.6 23.8 86 1.7 NE 13 19 7 10 1011.5 1011.0 -
26/07:00am 25.5 28.3 23.6 89 1.3 NE 15 20 8 11 1011.1 1010.6 -
26/06:30am 23.9 27.6 22.5 92 0.9 WNW 7 11 4 6 1010.9 1010.4 -
26/06:00am 23.7 27.1 22.0 90 1.1 ENE 7 13 4 7 1010.7 1010.2 -
26/05:30am 23.9 26.3 22.2 90 1.1 ENE 13 20 7 11 1010.5 1010.0 -
26/05:00am 24.3 27.0 22.2 88 1.4 N 11 15 6 8 1010.6 1010.1 -
26/04:30am 24.3 27.0 22.2 88 1.4 N 11 17 6 9 1010.4 1009.9 -
26/04:00am 23.9 26.5 22.0 89 1.3 NNE 11 17 6 9 1010.5 1010.0 -
26/03:30am 23.9 26.3 21.6 87 1.5 NNE 11 15 6 8 1010.6 1010.1 -
26/03:00am 23.9 26.3 22.2 90 1.1 NNE 13 17 7 9 1010.8 1010.3 0.0
26/02:30am 24.2 25.5 22.3 89 1.3 NE 19 22 10 12 1010.8 1010.3 -
26/02:00am 24.1 25.1 21.8 87 1.5 NE 19 24 10 13 1011.2 1010.7 -
26/01:30am 24.2 25.5 22.3 89 1.3 NE 19 24 10 13 1011.5 1011.0 -
26/01:00am 24.3 25.2 22.0 87 1.5 NE 20 26 11 14 1011.7 1011.2 -
26/12:30am 24.3 25.3 21.8 86 1.7 NE 19 24 10 13 1011.8 1011.3 -
26/12:00am 24.4 25.5 21.9 86 1.7 NE 19 22 10 12 1012.3 1011.8 -
 
Date/Time
EST
Temp
°C
App
Temp
°C
Dew
Point
°C
Rel
Hum
%
Delta-T
°C
Wind Press
QNH
hPa
Press
MSL
hPa
Rain since
9am
mm
Dir  Spd
km/h
Gust
km/h
Spd
kts
Gust
kts
25/11:30pm 24.5 25.4 22.0 86 1.7 ENE 20 26 11 14 1012.5 1012.0 -
25/11:00pm 24.5 24.9 22.4 88 1.4 ENE 24 30 13 16 1012.7 1012.1 -
25/10:30pm 24.5 25.2 22.2 87 1.5 ENE 22 24 12 13 1012.5 1012.0 -
25/10:00pm 24.5 24.9 21.8 85 1.8 ENE 22 26 12 14 1012.7 1012.1 -
25/09:30pm 24.6 25.9 22.3 87 1.5 ENE 19 26 10 14 1012.7 1012.1 -
25/09:00pm 24.5 25.2 22.2 87 1.5 E 22 30 12 16 1012.3 1011.8 0.0
25/08:30pm 24.4 23.9 21.5 84 1.9 E 26 32 14 17 1012.0 1011.5 -
25/08:00pm 24.4 24.3 21.5 84 1.9 E 24 30 13 16 1011.8 1011.3 -
25/07:30pm 24.4 24.6 22.1 87 1.5 E 24 30 13 16 1011.8 1011.3 -
25/07:00pm 24.4 24.3 22.3 88 1.4 E 26 30 14 16 1011.6 1011.1 -
25/06:30pm 24.5 24.1 21.6 84 1.9 ENE 26 30 14 16 1011.1 1010.6 -
25/06:00pm 24.7 25.2 22.0 85 1.8 ENE 22 26 12 14 1011.1 1010.6 -
25/05:30pm 25.1 25.5 22.4 85 1.8 ENE 24 28 13 15 1010.9 1010.4 -
25/05:00pm 25.1 25.4 22.2 84 1.9 ENE 24 28 13 15 1010.6 1010.1 -
25/04:30pm 25.2 25.5 22.3 84 2.0 ENE 24 28 13 15 1010.6 1010.1 -
25/04:00pm 26.1 27.7 23.2 84 2.0 ENE 20 28 11 15 1010.6 1010.1 -
25/03:30pm 25.3 26.7 22.8 86 1.7 ENE 20 26 11 14 1010.7 1010.2 -
25/03:00pm 25.8 26.2 22.5 82 2.2 ENE 24 28 13 15 1010.7 1010.2 -
25/02:30pm 25.9 27.5 23.2 85 1.8 E 20 26 11 14 1011.2 1010.7 -
25/02:00pm 26.7 28.3 22.8 79 2.7 E 19 22 10 12 1011.8 1011.3 -
25/01:30pm 27.6 29.6 23.6 79 2.8 E 19 20 10 11 1012.2 1011.7 -
25/01:00pm 27.1 28.4 22.7 77 3.0 ENE 20 22 11 12 1012.5 1012.0 -
25/12:30pm 28.0 30.0 24.0 79 2.8 ENE 20 24 11 13 1012.9 1012.3 -
25/12:00pm 27.4 28.6 23.8 81 2.5 E 24 - 13 - - 1012.6 -
25/11:30am 25.9 26.1 22.8 83 2.1 ENE 26 32 14 17 1013.3 1012.7 0.4
25/11:00am 24.9 24.5 23.1 90 1.2 ENE 30 35 16 19 1013.4 1012.8 0.4
25/10:30am 24.9 26.7 23.3 91 1.1 ESE 19 33 10 18 1013.5 1012.9 0.2
25/10:00am 27.1 27.7 24.2 84 2.0 E 28 32 15 17 1013.6 1013.0 0.2
25/09:30am 27.0 27.5 23.9 83 2.1 E 28 35 15 19 1013.8 1013.2 0.2
25/09:00am 25.8 26.2 23.1 85 1.8 ESE 26 33 14 18 1013.7 1013.1 17.6
25/08:30am 24.9 25.7 23.1 90 1.2 ESE 24 32 13 17 1013.8 1013.2 17.6
25/08:00am 24.3 23.9 22.4 89 1.3 ESE 28 37 15 20 1013.6 1013.0 17.6
25/07:30am 25.7 25.9 23.4 87 1.6 E 28 35 15 19 1013.1 1012.5 17.6
25/07:00am 25.4 25.7 23.6 90 1.2 E 28 33 15 18 1013.0 1012.4 17.6
25/06:30am 24.8 25.3 22.7 88 1.4 E 24 30 13 16 1012.7 1012.1 17.6
25/06:00am 24.1 24.1 22.4 90 1.1 E 26 33 14 18 1012.1 1011.6 17.6
25/05:30am 24.1 23.6 22.2 89 1.3 ENE 28 35 15 19 1012.1 1011.6 17.6
25/05:00am 24.2 24.0 22.8 92 0.9 E 28 32 15 17 1011.9 1011.4 17.6
25/04:30am 24.2 24.6 22.5 90 1.1 E 24 30 13 16 1011.8 1011.3 17.6
25/04:00am 24.2 24.3 22.6 91 1.1 E 26 33 14 18 1011.6 1011.1 17.6
25/03:30am 24.0 23.2 22.3 90 1.1 E 30 35 16 19 1011.6 1011.1 17.6
25/03:00am 24.2 23.6 22.6 91 1.1 E 30 39 16 21 1011.9 1011.4 17.6
25/02:30am 24.1 23.3 22.4 90 1.1 E 30 37 16 20 1011.9 1011.4 17.6
25/02:00am 24.1 22.8 22.4 90 1.1 E 33 41 18 22 1012.1 1011.6 17.6
25/01:30am 24.1 22.8 22.5 91 1.1 E 33 41 18 22 1012.7 1012.1 17.6
25/01:00am 24.3 23.3 22.7 91 1.1 E 32 39 17 21 1013.1 1012.5 17.6
25/12:30am 24.3 22.8 22.7 91 1.1 E 35 41 19 22 1013.1 1012.5 17.6
25/12:00am 24.4 22.9 22.7 90 1.1 E 35 41 19 22 1013.7 1013.1 17.6
 
Date/Time
EST
Temp
°C
App
Temp
°C
Dew
Point
°C
Rel
Hum
%
Delta-T
°C
Wind Press
QNH
hPa
Press
MSL
hPa
Rain since
9am
mm
Dir  Spd
km/h
Gust
km/h
Spd
kts
Gust
kts
24/11:30pm 24.4 22.9 22.7 90 1.1 E 35 41 19 22 1013.9 1013.3 17.6
24/11:00pm 24.5 23.4 22.8 90 1.1 E 33 41 18 22 1014.2 1013.6 17.6
24/10:30pm 24.2 21.7 22.3 89 1.3 E 39 46 21 25 1013.8 1013.2 17.6
24/10:00pm 24.3 22.8 22.7 91 1.1 E 35 44 19 24 1013.9 1013.3 17.6
24/09:30pm 24.4 22.5 22.7 90 1.1 E 37 46 20 25 1013.8 1013.2 17.6
24/09:00pm 24.2 21.8 22.5 90 1.1 E 39 46 21 25 1013.5 1012.9 17.6
24/08:30pm 24.3 22.4 22.7 91 1.1 E 37 46 20 25 1013.3 1012.7 17.6
24/08:00pm 24.2 21.8 22.6 91 1.1 E 39 48 21 26 1013.4 1012.8 17.6
24/07:30pm 24.3 21.7 22.9 92 0.9 E 41 50 22 27 1013.1 1012.5 17.6
24/07:00pm 24.4 22.3 23.0 92 0.9 E 39 48 21 26 1012.7 1012.1 17.6
24/06:30pm 24.4 22.2 22.8 91 1.1 ESE 39 44 21 24 1012.8 1012.2 17.6
24/06:00pm 24.6 23.8 23.4 93 0.8 E 33 43 18 23 1012.5 1012.0 17.6
24/05:30pm 24.9 24.9 23.1 90 1.2 ESE 28 35 15 19 1012.1 1011.6 17.6
24/05:00pm 24.4 23.5 22.8 91 1.1 ESE 32 39 17 21 1011.9 1011.4 17.6
24/04:30pm 23.7 23.2 22.9 95 0.5 E 30 37 16 20 1011.9 1011.4 17.6
24/04:00pm 23.6 23.0 23.4 99 0.1 E 32 37 17 20 1011.9 1011.4 17.6
24/03:30pm 23.7 22.3 22.9 95 0.5 ESE 35 46 19 25 1012.2 1011.7 11.8
24/03:22pm 25.4 25.2 22.7 85 1.8 ESE 28 43 15 23 1012.2 1011.7 8.4
24/03:00pm 26.5 28.1 23.2 82 2.3 ESE 20 24 11 13 1012.7 1012.1 8.4
24/02:30pm 26.3 28.0 23.4 84 2.0 ESE 20 26 11 14 1013.0 1012.4 8.4
24/02:00pm 27.1 29.5 24.2 84 2.0 ESE 19 22 10 12 1013.3 1012.7 8.4
24/01:30pm 26.4 27.3 22.7 80 2.5 ESE 22 26 12 14 1013.4 1012.8 8.4
24/01:00pm 27.1 28.2 23.6 81 2.4 E 24 28 13 15 1013.7 1013.1 8.4
24/12:30pm 27.0 27.7 23.7 82 2.3 ESE 26 30 14 16 1013.9 1013.3 8.4
24/12:00pm 27.5 29.5 24.6 84 2.0 ESE 22 26 12 14 1014.2 1013.6 8.4
24/11:30am 26.7 28.3 23.8 84 2.0 ESE 22 28 12 15 1014.2 1013.6 8.4
24/11:00am 26.1 27.3 23.8 87 1.6 ESE 24 28 13 15 1014.3 1013.7 8.2
24/10:30am 24.8 25.7 23.4 92 1.0 ESE 24 30 13 16 1014.5 1013.9 8.2
24/10:00am 23.0 22.1 22.8 99 0.1 ESE 32 39 17 21 1014.6 1014.0 8.2
24/09:30am 23.3 22.7 23.3 100 0.0 E 32 37 17 20 1014.4 1013.8 6.8
24/09:00am 23.8 22.1 23.1 96 0.5 SE 37 50 20 27 1014.9 1014.3 0.4
24/08:30am 24.3 23.5 23.1 93 0.8 E 32 41 17 22 1014.5 1013.9 0.2
24/08:00am 25.8 23.8 23.3 86 1.7 E 39 46 21 25 1013.4 1012.8 0.2
24/07:30am 25.4 24.5 22.9 86 1.7 ENE 32 39 17 21 1013.3 1012.7 0.2
24/07:00am 25.5 25.2 22.6 84 2.0 E 28 35 15 19 1013.4 1012.8 0.2
24/06:30am 24.6 25.4 23.2 92 1.0 E 24 30 13 16 1013.3 1012.7 0.2
24/06:00am 24.4 24.6 22.8 91 1.1 E 26 35 14 19 1012.5 1012.0 0.2
24/05:30am 24.4 24.9 22.7 90 1.1 E 24 32 13 17 1012.5 1012.0 0.2
24/05:00am 24.2 24.8 22.8 92 0.9 E 24 28 13 15 1012.4 1011.9 0.2
24/04:30am 24.2 25.8 22.8 92 0.9 E 19 24 10 13 1012.0 1011.5 0.2
24/04:00am 23.9 25.3 22.5 92 0.9 E 19 24 10 13 1011.7 1011.2 0.2
24/03:30am 24.1 25.4 22.7 92 0.9 E 20 26 11 14 1011.6 1011.1 0.2
24/03:00am 23.8 25.0 22.2 91 1.1 E 19 26 10 14 1011.6 1011.1 0.2
24/02:30am 24.0 25.1 22.3 90 1.1 ESE 20 26 11 14 1011.6 1011.1 0.2
24/02:00am 23.9 25.6 22.3 91 1.1 E 17 24 9 13 1011.6 1011.1 0.2
24/01:30am 24.0 23.4 21.9 88 1.4 E 28 33 15 18 1011.3 1010.8 0.2
24/01:00am 24.1 23.3 22.4 90 1.1 E 30 35 16 19 1011.6 1011.1 0.2
24/12:30am 24.0 22.1 22.1 89 1.3 E 35 43 19 23 1011.7 1011.2 0.2
24/12:00am 23.9 21.8 21.6 87 1.5 E 35 43 19 23 1012.0 1011.5 0.2
 
Date/Time
EST
Temp
°C
App
Temp
°C
Dew
Point
°C
Rel
Hum
%
Delta-T
°C
Wind Press
QNH
hPa
Press
MSL
hPa
Rain since
9am
mm
Dir  Spd
km/h
Gust
km/h
Spd
kts
Gust
kts
23/11:30pm 23.6 20.6 21.3 87 1.5 E 39 48 21 26 1012.2 1011.7 0.2
23/11:00pm 23.3 18.6 21.4 89 1.3 E 48 57 26 31 1012.0 1011.5 0.2
23/10:30pm 23.3 21.4 22.1 93 0.8 E 35 43 19 23 1013.4 1012.8 0.2
23/10:00pm 22.6 19.6 20.7 89 1.2 E 37 46 20 25 1012.5 1012.0 0.2
23/09:30pm 21.3 16.8 21.0 98 0.2 ESE 46 54 25 29 1012.4 1011.9 0.2
23/09:12pm 21.3 16.8 21.1 99 0.1 SE 46 56 25 30 1012.7 1012.1 0.0
23/09:00pm 20.9 16.2 20.6 98 0.2 SSE 46 59 25 32 1013.0 1012.4 0.0
23/08:30pm 21.3 16.4 20.3 94 0.6 S 46 65 25 35 1013.5 1012.9 0.0
23/08:29pm 21.6 17.2 20.6 94 0.6 S 44 63 24 34 1013.5 1012.9 0.0
23/08:22pm 22.5 19.0 19.7 84 1.8 SE 37 59 20 32 1013.6 1013.0 0.0

Other formats

Comma delimited format used in spreadsheet applications
http://www.bom.gov.au/fwo/IDQ60801/IDQ60801.94594.axf

JavaScript Object Notation format (JSON) in row-major order
http://www.bom.gov.au/fwo/IDQ60801/IDQ60801.94594.json

Data quality

Most of these data are generated automatically and are frequently updated. Quality checks on data are not normally performed. It is possible for incorrect values to appear. Refer to information at About Latest Weather Observations and please check the disclaimer before using these data.